createdAt,value
2019-06-27T00:01:07.652Z,74.39
2019-06-27T00:03:34.827Z,74.81
2019-06-27T00:06:02.154Z,75.13
2019-06-27T00:08:30.848Z,75.18
2019-06-27T00:10:59.258Z,75.71
2019-06-27T00:13:26.829Z,75.82
2019-06-27T00:15:54.027Z,75.82
2019-06-27T00:18:21.214Z,76.15
2019-06-27T00:20:48.305Z,76.31
2019-06-27T00:23:15.572Z,76.10
2019-06-27T00:25:42.824Z,76.20
2019-06-27T00:28:10.084Z,76.04
2019-06-27T00:30:37.161Z,75.81
2019-06-27T00:33:04.281Z,76.12
2019-06-27T00:35:31.341Z,75.88
2019-06-27T00:37:58.512Z,76.14
2019-06-27T00:40:25.770Z,76.16
2019-06-27T00:42:52.965Z,76.61
2019-06-27T00:45:20.285Z,76.84
2019-06-27T00:47:47.422Z,76.95
2019-06-27T00:50:15.166Z,76.85
2019-06-27T00:52:42.380Z,76.91
2019-06-27T00:55:09.572Z,77.14
2019-06-27T00:57:36.778Z,77.26
2019-06-27T01:00:04.998Z,77.06
2019-06-27T01:02:32.218Z,77.28
2019-06-27T01:04:59.411Z,77.57
2019-06-27T01:07:26.910Z,77.65
2019-06-27T01:09:54.107Z,77.67
2019-06-27T01:12:21.294Z,77.86
2019-06-27T01:14:48.481Z,78.22
2019-06-27T01:17:16.070Z,78.59
2019-06-27T01:19:43.239Z,77.94
2019-06-27T01:22:10.411Z,78.00
2019-06-27T01:24:37.660Z,78.47
2019-06-27T01:27:04.808Z,78.20
2019-06-27T01:29:32.070Z,78.16
2019-06-27T01:31:59.421Z,77.84
2019-06-27T01:34:26.572Z,78.40
2019-06-27T01:36:53.815Z,78.76
2019-06-27T01:39:21.004Z,79.09
2019-06-27T01:41:48.347Z,79.10
2019-06-27T01:44:41.786Z,79.26
2019-06-27T01:47:09.453Z,79.83
2019-06-27T01:49:36.580Z,80.29
2019-06-27T01:52:04.037Z,80.84
2019-06-27T01:54:31.513Z,81.21
2019-06-27T01:56:58.706Z,81.46
2019-06-27T01:59:25.937Z,81.27
2019-06-27T02:01:53.182Z,81.13
2019-06-27T02:04:20.655Z,81.58
2019-06-27T02:06:47.989Z,81.10
2019-06-27T02:09:15.152Z,81.16
2019-06-27T02:11:42.249Z,81.26
2019-06-27T02:14:09.475Z,80.78
2019-06-27T02:16:37.055Z,80.79
2019-06-27T02:19:04.323Z,81.08
2019-06-27T02:21:31.577Z,81.03
2019-06-27T02:23:58.856Z,80.69
2019-06-27T02:26:26.053Z,80.91
2019-06-27T02:28:53.704Z,80.67
2019-06-27T02:31:20.796Z,80.37
2019-06-27T02:33:48.003Z,80.64
2019-06-27T02:36:15.437Z,80.55
2019-06-27T02:38:42.635Z,80.93
2019-06-27T02:41:09.830Z,80.78
2019-06-27T02:43:37.135Z,81.01
2019-06-27T02:46:04.461Z,81.04
2019-06-27T02:48:31.817Z,81.40
2019-06-27T02:50:59.214Z,81.89
2019-06-27T02:53:26.465Z,81.54
2019-06-27T02:55:53.729Z,80.89
2019-06-27T02:58:31.065Z,80.49
2019-06-27T03:00:50.733Z,80.78
2019-06-27T03:03:18.069Z,80.84
2019-06-27T03:05:45.206Z,81.02
2019-06-27T03:08:12.941Z,80.81
2019-06-27T03:10:40.163Z,80.55
2019-06-27T03:13:07.233Z,79.73
2019-06-27T03:15:34.439Z,79.53
2019-06-27T03:18:01.585Z,79.43
2019-06-27T03:20:29.119Z,79.98
2019-06-27T03:22:56.577Z,80.24
2019-06-27T03:25:23.793Z,80.69
2019-06-27T03:27:51.522Z,80.64
2019-06-27T03:30:18.997Z,80.75
2019-06-27T03:32:46.410Z,80.71
2019-06-27T03:35:13.596Z,80.68
2019-06-27T03:37:41.114Z,80.43
2019-06-27T03:40:09.495Z,80.41
2019-06-27T03:42:36.713Z,79.91
2019-06-27T03:45:04.373Z,79.97
2019-06-27T03:47:31.882Z,79.54
2019-06-27T03:49:59.127Z,79.25
2019-06-27T03:52:26.485Z,79.06
2019-06-27T03:54:53.853Z,79.08
2019-06-27T03:57:22.864Z,78.99
2019-06-27T03:59:49.996Z,78.79
2019-06-27T04:02:17.292Z,78.48
2019-06-27T04:04:44.474Z,78.07
2019-06-27T04:07:11.663Z,77.76
2019-06-27T04:09:39.262Z,77.54
2019-06-27T04:12:06.596Z,77.25
2019-06-27T04:14:33.879Z,76.90
2019-06-27T04:17:01.045Z,76.66
2019-06-27T04:19:28.347Z,76.10
2019-06-27T04:21:55.519Z,74.87
2019-06-27T04:24:22.777Z,74.49
2019-06-27T04:26:50.084Z,74.18
2019-06-27T04:29:33.001Z,73.80
2019-06-27T04:31:46.747Z,73.42
2019-06-27T04:34:19.254Z,72.43
2019-06-27T04:36:43.119Z,68.82
2019-06-27T04:39:10.452Z,63.22
2019-06-27T04:41:38.115Z,59.13
2019-06-27T04:44:05.311Z,56.48
2019-06-27T04:46:32.480Z,53.42
2019-06-27T04:49:00.213Z,49.29
2019-06-27T04:51:27.497Z,47.89
2019-06-27T04:53:54.741Z,47.95
2019-06-27T04:56:23.281Z,48.42
2019-06-27T04:58:50.809Z,46.52
2019-06-27T05:01:17.998Z,45.29
2019-06-27T05:03:45.180Z,45.14
2019-06-27T05:06:12.510Z,45.39
2019-06-27T05:08:39.714Z,43.48
2019-06-27T05:11:06.939Z,42.66
2019-06-27T05:13:34.133Z,42.12
2019-06-27T05:16:01.785Z,40.46
2019-06-27T05:18:29.059Z,38.74
2019-06-27T05:20:56.420Z,38.42
2019-06-27T05:23:23.711Z,36.15
2019-06-27T05:25:51.425Z,34.10
2019-06-27T05:28:18.680Z,32.38
2019-06-27T05:30:45.911Z,31.51
2019-06-27T05:33:13.120Z,32.48
2019-06-27T05:35:40.202Z,31.79
2019-06-27T05:38:07.404Z,33.66
2019-06-27T05:40:34.835Z,34.24
2019-06-27T05:43:02.135Z,34.18
2019-06-27T05:45:29.662Z,33.39
2019-06-27T05:47:56.776Z,33.12
2019-06-27T05:50:24.072Z,33.75
2019-06-27T05:52:51.286Z,37.70
2019-06-27T05:55:18.857Z,40.04
2019-06-27T05:57:46.104Z,41.82
2019-06-27T06:00:27.563Z,42.41
2019-06-27T06:02:44.076Z,43.81
2019-06-27T06:05:11.170Z,44.40
2019-06-27T06:07:39.009Z,38.85
2019-06-27T06:10:06.485Z,32.84
2019-06-27T06:12:33.816Z,32.50
2019-06-27T06:15:00.993Z,35.42
2019-06-27T06:17:28.941Z,35.15
2019-06-27T06:19:56.213Z,31.23
2019-06-27T06:22:23.458Z,28.57
2019-06-27T06:24:51.234Z,29.43
2019-06-27T06:27:18.628Z,32.20
2019-06-27T06:29:45.986Z,32.42
2019-06-27T06:32:14.308Z,32.90
2019-06-27T06:34:41.497Z,31.95
2019-06-27T06:37:09.249Z,30.54
2019-06-27T06:39:36.497Z,30.75
2019-06-27T06:42:03.608Z,31.92
2019-06-27T06:44:30.895Z,34.10
2019-06-27T06:46:58.035Z,33.97
2019-06-27T06:49:25.231Z,32.55
2019-06-27T06:51:52.333Z,32.68
2019-06-27T06:54:19.527Z,31.25
2019-06-27T06:56:46.728Z,30.33
2019-06-27T06:59:14.215Z,27.99
2019-06-27T07:01:41.351Z,24.55
2019-06-27T07:04:08.877Z,21.46
2019-06-27T07:06:36.179Z,21.15
2019-06-27T07:09:04.501Z,21.42
2019-06-27T07:11:33.874Z,21.97
2019-06-27T07:14:01.062Z,21.48
2019-06-27T07:16:28.401Z,20.99
2019-06-27T07:18:55.937Z,19.77
2019-06-27T07:21:23.122Z,19.06
2019-06-27T07:23:50.237Z,17.69
2019-06-27T07:26:17.453Z,17.26
2019-06-27T07:28:44.554Z,16.21
2019-06-27T07:31:17.882Z,17.24
2019-06-27T07:33:41.068Z,17.07
2019-06-27T07:36:08.819Z,15.91
2019-06-27T07:38:36.046Z,15.12
2019-06-27T07:41:03.236Z,13.98
2019-06-27T07:43:30.421Z,12.55
2019-06-27T07:45:57.724Z,11.57
2019-06-27T07:48:24.998Z,11.23
2019-06-27T07:50:52.087Z,12.36
2019-06-27T07:53:19.274Z,13.82
2019-06-27T07:55:46.526Z,13.85
2019-06-27T07:58:13.677Z,14.68
2019-06-27T08:00:40.976Z,13.99
2019-06-27T08:03:08.032Z,13.11
2019-06-27T08:05:35.238Z,13.83
2019-06-27T08:08:02.427Z,14.18
2019-06-27T08:10:30.627Z,14.85
2019-06-27T08:12:57.740Z,14.37
2019-06-27T08:15:25.296Z,13.99
2019-06-27T08:17:52.372Z,13.23
2019-06-27T08:20:19.536Z,12.66
2019-06-27T08:22:46.747Z,12.61
2019-06-27T08:25:14.230Z,12.71
2019-06-27T08:27:41.388Z,12.90
2019-06-27T08:30:09.308Z,12.46
2019-06-27T08:32:36.551Z,12.90
2019-06-27T08:35:04.576Z,13.61
2019-06-27T08:37:31.816Z,13.61
2019-06-27T08:39:58.994Z,14.67
2019-06-27T08:42:26.214Z,14.79
2019-06-27T08:44:53.644Z,14.10
2019-06-27T08:47:20.813Z,13.85
2019-06-27T08:49:47.965Z,12.74
2019-06-27T08:52:15.055Z,13.41
2019-06-27T08:54:42.341Z,12.32
2019-06-27T08:57:09.400Z,12.12
2019-06-27T08:59:37.019Z,11.33
2019-06-27T09:02:09.051Z,10.86
2019-06-27T09:04:33.658Z,11.38
2019-06-27T09:07:00.842Z,11.81
2019-06-27T09:09:28.030Z,11.66
2019-06-27T09:11:55.300Z,11.20
2019-06-27T09:14:22.603Z,11.59
2019-06-27T09:16:49.863Z,12.63
2019-06-27T09:19:17.141Z,12.07
2019-06-27T09:21:44.536Z,11.38
2019-06-27T09:24:11.827Z,10.84
2019-06-27T09:26:38.995Z,12.45
2019-06-27T09:29:06.263Z,13.43
2019-06-27T09:31:33.421Z,13.55
2019-06-27T09:34:00.488Z,13.60
2019-06-27T09:36:28.079Z,13.88
2019-06-27T09:38:55.294Z,13.53
2019-06-27T09:41:22.663Z,12.64
2019-06-27T09:43:50.070Z,13.22
2019-06-27T09:46:17.260Z,13.17
2019-06-27T09:48:44.432Z,13.53
2019-06-27T09:51:11.634Z,14.83
2019-06-27T09:53:39.033Z,15.19
2019-06-27T09:56:06.223Z,15.61
2019-06-27T09:58:33.485Z,15.25
2019-06-27T10:01:00.671Z,14.75
2019-06-27T10:03:27.859Z,14.68
2019-06-27T10:05:55.037Z,15.08
2019-06-27T10:08:22.780Z,16.19
2019-06-27T10:10:50.063Z,17.45
2019-06-27T10:13:17.428Z,18.17
2019-06-27T10:15:44.498Z,19.86
2019-06-27T10:18:11.968Z,22.53
2019-06-27T10:20:39.169Z,26.49
2019-06-27T10:23:06.416Z,29.37
2019-06-27T10:25:33.645Z,30.33
2019-06-27T10:28:00.764Z,31.07
2019-06-27T10:30:28.598Z,33.22
2019-06-27T10:32:59.774Z,33.88
2019-06-27T10:35:25.195Z,31.69
2019-06-27T10:37:52.366Z,32.09
2019-06-27T10:40:20.728Z,32.77
2019-06-27T10:42:47.979Z,29.93
2019-06-27T10:45:15.286Z,31.37
2019-06-27T10:47:42.403Z,31.07
2019-06-27T10:50:10.799Z,31.21
2019-06-27T10:52:37.976Z,32.78
2019-06-27T10:55:05.964Z,32.51
2019-06-27T10:57:33.091Z,32.57
2019-06-27T11:00:00.188Z,29.98
2019-06-27T11:02:27.282Z,29.69
2019-06-27T11:04:54.603Z,29.82
2019-06-27T11:07:21.838Z,29.52
2019-06-27T11:09:50.302Z,28.25
2019-06-27T11:12:17.734Z,29.41
2019-06-27T11:14:58.255Z,30.44
2019-06-27T11:17:14.002Z,30.51
2019-06-27T11:19:51.906Z,29.99
2019-06-27T11:22:10.657Z,30.34
2019-06-27T11:24:38.211Z,29.78
2019-06-27T11:27:05.434Z,30.39
2019-06-27T11:29:32.635Z,29.35
2019-06-27T11:31:59.837Z,28.61
2019-06-27T11:34:27.953Z,28.41
2019-06-27T11:36:55.215Z,30.31
2019-06-27T11:39:23.465Z,31.03
2019-06-27T11:41:50.870Z,30.33
2019-06-27T11:44:18.009Z,30.47
2019-06-27T11:46:45.179Z,30.07
2019-06-27T11:49:12.391Z,29.52
2019-06-27T11:51:39.753Z,29.41
2019-06-27T11:54:06.979Z,29.83
2019-06-27T11:56:34.725Z,28.60
2019-06-27T11:59:01.926Z,28.43
2019-06-27T12:01:29.229Z,28.83
2019-06-27T12:03:56.448Z,28.51
2019-06-27T12:06:23.979Z,29.79
2019-06-27T12:08:51.223Z,28.26
2019-06-27T12:11:18.539Z,27.43
2019-06-27T12:13:45.726Z,26.69
2019-06-27T12:16:12.876Z,27.96
2019-06-27T12:18:40.121Z,27.91
2019-06-27T12:21:07.399Z,27.87
2019-06-27T12:23:34.564Z,28.64
2019-06-27T12:26:01.695Z,29.19
2019-06-27T12:28:28.969Z,29.26
2019-06-27T12:30:56.150Z,28.02
2019-06-27T12:33:23.810Z,26.60
2019-06-27T12:35:50.881Z,27.22
2019-06-27T12:38:18.055Z,27.45
2019-06-27T12:40:45.273Z,26.37
2019-06-27T12:43:14.533Z,23.56
2019-06-27T12:45:42.038Z,23.02
2019-06-27T12:48:09.146Z,24.27
2019-06-27T12:50:36.188Z,23.74
2019-06-27T12:53:03.379Z,23.85
2019-06-27T12:55:30.568Z,23.55
2019-06-27T12:57:57.760Z,23.39
2019-06-27T13:00:25.090Z,23.14
2019-06-27T13:02:52.508Z,22.74
2019-06-27T13:05:20.770Z,22.88
2019-06-27T13:07:47.996Z,23.19
2019-06-27T13:10:15.865Z,23.29
2019-06-27T13:12:42.949Z,22.94
2019-06-27T13:15:11.510Z,23.13
2019-06-27T13:17:38.618Z,23.26
2019-06-27T13:20:06.894Z,22.26
2019-06-27T13:22:34.261Z,22.66
2019-06-27T13:25:01.679Z,22.75
2019-06-27T13:27:29.210Z,23.58
2019-06-27T13:29:56.322Z,23.27
2019-06-27T13:32:25.471Z,23.05
2019-06-27T13:34:52.676Z,22.76
2019-06-27T13:37:20.170Z,22.46
2019-06-27T13:39:47.306Z,22.50
2019-06-27T13:42:14.547Z,22.55
2019-06-27T13:44:41.728Z,23.65
2019-06-27T13:47:08.988Z,23.37
2019-06-27T13:49:36.148Z,23.30
2019-06-27T13:52:03.360Z,22.34
2019-06-27T13:54:30.808Z,22.87
2019-06-27T13:56:58.376Z,22.71
2019-06-27T13:59:25.527Z,22.60
2019-06-27T14:01:52.895Z,22.83
2019-06-27T14:04:24.009Z,22.41
2019-06-27T14:06:49.207Z,22.57
2019-06-27T14:09:23.145Z,22.51
2019-06-27T14:11:45.491Z,22.02
2019-06-27T14:14:12.998Z,21.94
2019-06-27T14:16:40.541Z,21.71
2019-06-27T14:19:07.711Z,22.52
2019-06-27T14:21:34.893Z,23.05
2019-06-27T14:24:02.068Z,22.97
2019-06-27T14:26:29.476Z,22.68
2019-06-27T14:28:57.126Z,22.87
2019-06-27T14:31:24.435Z,22.68
2019-06-27T14:33:51.618Z,22.83
2019-06-27T14:36:18.717Z,23.25
2019-06-27T14:38:45.934Z,23.45
2019-06-27T14:41:13.098Z,23.97
2019-06-27T14:43:40.699Z,24.00
2019-06-27T14:46:07.928Z,24.26
2019-06-27T14:48:35.499Z,24.24
2019-06-27T14:51:02.978Z,24.30
2019-06-27T14:53:30.264Z,24.22
2019-06-27T14:55:57.419Z,24.16
2019-06-27T14:58:24.626Z,24.46
2019-06-27T15:00:51.837Z,24.24
2019-06-27T15:03:18.999Z,23.78
2019-06-27T15:05:46.091Z,24.04
2019-06-27T15:08:13.318Z,23.89
2019-06-27T15:10:40.490Z,24.06
2019-06-27T15:13:07.927Z,23.71
2019-06-27T15:15:35.524Z,23.71
2019-06-27T15:18:02.662Z,23.82
2019-06-27T15:20:29.818Z,23.74
2019-06-27T15:22:56.986Z,23.66
2019-06-27T15:25:27.939Z,23.66
2019-06-27T15:27:53.405Z,23.54
2019-06-27T15:30:20.983Z,23.42
2019-06-27T15:32:48.869Z,23.60
2019-06-27T15:35:16.128Z,23.77
2019-06-27T15:37:43.554Z,23.56
2019-06-27T15:40:12.350Z,23.90
2019-06-27T15:42:39.508Z,23.56
2019-06-27T15:45:07.589Z,23.95
2019-06-27T15:47:34.801Z,23.47
2019-06-27T15:50:02.016Z,22.97
2019-06-27T15:52:29.452Z,22.80
2019-06-27T15:54:56.513Z,22.63
2019-06-27T15:57:23.815Z,22.54
2019-06-27T15:59:50.977Z,22.61
2019-06-27T16:02:18.144Z,22.66
2019-06-27T16:04:45.337Z,22.62
2019-06-27T16:07:12.738Z,22.28
2019-06-27T16:09:40.579Z,22.56
2019-06-27T16:12:08.157Z,22.62
2019-06-27T16:14:35.368Z,22.42
2019-06-27T16:17:03.038Z,22.91
2019-06-27T16:19:30.346Z,23.16
2019-06-27T16:21:57.576Z,23.55
2019-06-27T16:24:24.851Z,23.68
2019-06-27T16:26:52.175Z,23.78
2019-06-27T16:29:19.566Z,24.03
2019-06-27T16:31:46.740Z,24.29
2019-06-27T16:34:13.960Z,24.61
2019-06-27T16:36:41.276Z,24.41
2019-06-27T16:39:08.492Z,23.94
2019-06-27T16:41:35.573Z,23.92
2019-06-27T16:44:02.840Z,23.85
2019-06-27T16:46:30.138Z,24.23
2019-06-27T16:48:57.389Z,23.87
2019-06-27T16:51:24.936Z,24.08
2019-06-27T16:53:52.570Z,24.39
2019-06-27T16:56:19.875Z,24.38
2019-06-27T16:58:47.076Z,24.73
2019-06-27T17:01:14.672Z,24.51
2019-06-27T17:03:41.862Z,24.49
2019-06-27T17:06:09.218Z,24.77
2019-06-27T17:08:38.230Z,24.40
2019-06-27T17:11:05.783Z,24.17
2019-06-27T17:13:32.994Z,24.25
2019-06-27T17:16:00.210Z,24.39
2019-06-27T17:18:27.493Z,23.89
2019-06-27T17:20:54.982Z,24.05
2019-06-27T17:23:22.052Z,24.06
2019-06-27T17:25:49.281Z,24.26
2019-06-27T17:28:16.538Z,24.03
2019-06-27T17:30:44.056Z,23.91
2019-06-27T17:33:11.244Z,24.01
2019-06-27T17:35:38.365Z,24.01
2019-06-27T17:38:05.562Z,24.00
2019-06-27T17:40:32.710Z,23.93
2019-06-27T17:42:59.929Z,24.15
2019-06-27T17:45:27.092Z,24.26
2019-06-27T17:47:54.664Z,24.06
2019-06-27T17:50:21.892Z,24.62
2019-06-27T17:52:49.218Z,24.30
2019-06-27T17:55:16.742Z,24.56
2019-06-27T17:57:46.924Z,24.96
2019-06-27T18:00:13.287Z,25.07
2019-06-27T18:02:40.586Z,25.39
2019-06-27T18:05:07.886Z,25.96
2019-06-27T18:07:35.078Z,26.44
2019-06-27T18:10:02.797Z,26.51
2019-06-27T18:12:30.388Z,26.87
2019-06-27T18:14:58.058Z,26.97
2019-06-27T18:17:33.715Z,27.33
2019-06-27T18:19:54.362Z,27.54
2019-06-27T18:22:21.639Z,28.07
2019-06-27T18:24:48.880Z,28.16
2019-06-27T18:27:16.044Z,28.50
2019-06-27T18:29:43.229Z,28.50
2019-06-27T18:32:10.454Z,28.34
2019-06-27T18:34:37.773Z,28.33
2019-06-27T18:37:05.377Z,28.49
2019-06-27T18:39:32.573Z,29.00
2019-06-27T18:41:59.699Z,29.47
2019-06-27T18:44:26.885Z,29.92
2019-06-27T18:46:54.065Z,30.35
2019-06-27T18:49:21.290Z,30.79
2019-06-27T18:51:48.432Z,31.29
2019-06-27T18:54:15.612Z,31.68
2019-06-27T18:56:42.873Z,31.87
2019-06-27T18:59:10.417Z,32.14
2019-06-27T19:01:37.642Z,32.55
2019-06-27T19:04:04.851Z,32.50
2019-06-27T19:06:32.470Z,33.06
2019-06-27T19:08:59.771Z,33.44
2019-06-27T19:11:27.831Z,33.59
2019-06-27T19:13:55.042Z,33.73
2019-06-27T19:16:22.581Z,33.83
2019-06-27T19:18:54.262Z,34.20
2019-06-27T19:21:29.628Z,34.74
2019-06-27T19:24:08.076Z,34.66
2019-06-27T19:26:35.264Z,35.17
2019-06-27T19:29:02.635Z,35.35
2019-06-27T19:31:29.942Z,35.66
2019-06-27T19:33:57.195Z,35.57
2019-06-27T19:36:24.447Z,35.50
2019-06-27T19:38:52.181Z,35.58
2019-06-27T19:41:19.394Z,36.16
2019-06-27T19:43:46.741Z,36.16
2019-06-27T19:46:14.436Z,36.48
2019-06-27T19:48:45.495Z,37.04
2019-06-27T19:51:11.363Z,37.29
2019-06-27T19:53:38.653Z,37.72
2019-06-27T19:56:05.897Z,38.00
2019-06-27T19:58:33.451Z,38.29
2019-06-27T20:01:00.810Z,38.50
2019-06-27T20:03:28.569Z,39.03
2019-06-27T20:05:55.822Z,39.22
2019-06-27T20:08:23.106Z,39.56
2019-06-27T20:10:50.410Z,39.79
2019-06-27T20:13:18.022Z,40.05
2019-06-27T20:15:45.242Z,40.12
2019-06-27T20:18:15.638Z,40.02
2019-06-27T20:20:43.149Z,40.52
2019-06-27T20:23:17.167Z,40.84
2019-06-27T20:25:44.799Z,41.20
2019-06-27T20:28:12.041Z,41.39
2019-06-27T20:30:39.711Z,41.48
2019-06-27T20:33:07.484Z,41.89
2019-06-27T20:35:35.953Z,42.15
2019-06-27T20:38:03.327Z,42.46
2019-06-27T20:40:30.677Z,42.71
2019-06-27T20:42:59.280Z,42.96
2019-06-27T20:45:26.606Z,43.18
2019-06-27T20:47:55.726Z,43.45
2019-06-27T20:50:23.629Z,43.42
2019-06-27T20:52:52.234Z,43.55
2019-06-27T20:55:19.839Z,44.00
2019-06-27T20:57:47.608Z,44.02
2019-06-27T21:00:16.048Z,43.73
2019-06-27T21:02:44.051Z,43.10
2019-06-27T21:05:11.713Z,42.77
2019-06-27T21:07:39.005Z,43.06
2019-06-27T21:10:06.789Z,43.16
2019-06-27T21:12:34.225Z,43.22
2019-06-27T21:15:01.658Z,42.87
2019-06-27T21:17:29.313Z,43.40
2019-06-27T21:19:56.546Z,43.60
2019-06-27T21:22:23.911Z,43.83
2019-06-27T21:24:51.150Z,44.40
2019-06-27T21:27:18.409Z,45.02
2019-06-27T21:29:45.881Z,45.57
2019-06-27T21:32:13.161Z,46.16
2019-06-27T21:34:40.438Z,46.80
2019-06-27T21:37:08.110Z,45.66
2019-06-27T21:39:35.457Z,45.32
2019-06-27T21:42:02.775Z,44.64
2019-06-27T21:44:30.025Z,44.81
2019-06-27T21:46:57.303Z,45.33
2019-06-27T21:49:24.463Z,45.79
2019-06-27T21:51:52.061Z,45.62
2019-06-27T21:54:20.580Z,46.17
2019-06-27T21:56:47.902Z,46.65
2019-06-27T21:59:15.296Z,46.46
2019-06-27T22:01:43.068Z,46.73
2019-06-27T22:04:10.951Z,46.53
2019-06-27T22:06:38.210Z,45.93
2019-06-27T22:09:06.323Z,46.50
2019-06-27T22:11:33.834Z,47.28
2019-06-27T22:14:01.266Z,47.52
2019-06-27T22:16:28.505Z,47.82
2019-06-27T22:18:57.756Z,47.89
2019-06-27T22:21:25.352Z,48.09
2019-06-27T22:23:52.715Z,48.29
2019-06-27T22:26:19.982Z,48.57
2019-06-27T22:28:48.145Z,48.83
2019-06-27T22:31:15.383Z,48.93
2019-06-27T22:33:42.894Z,48.83
2019-06-27T22:36:10.126Z,49.00
2019-06-27T22:38:55.587Z,49.29
2019-06-27T22:41:59.183Z,49.48
2019-06-27T22:45:03.424Z,49.34
2019-06-27T22:48:07.271Z,49.82
2019-06-27T22:51:21.882Z,49.55
2019-06-27T22:53:56.789Z,49.95
2019-06-27T22:56:25.023Z,50.43
2019-06-27T22:58:52.358Z,50.83
2019-06-27T23:01:19.768Z,50.91
2019-06-27T23:03:46.968Z,51.13
2019-06-27T23:06:15.325Z,51.36
2019-06-27T23:08:42.665Z,51.61
2019-06-27T23:11:09.885Z,51.93
2019-06-27T23:13:37.183Z,51.99
2019-06-27T23:16:04.407Z,52.03
2019-06-27T23:18:31.655Z,51.83
2019-06-27T23:20:58.759Z,52.54
2019-06-27T23:23:25.926Z,53.21
2019-06-27T23:25:53.113Z,53.33
2019-06-27T23:28:20.544Z,54.02
2019-06-27T23:30:48.560Z,54.30
2019-06-27T23:33:16.001Z,54.42
2019-06-27T23:35:43.119Z,54.93
2019-06-27T23:38:10.444Z,55.18
2019-06-27T23:40:37.687Z,55.61
2019-06-27T23:43:04.940Z,55.61
2019-06-27T23:45:32.189Z,56.01
2019-06-27T23:47:59.788Z,56.50
2019-06-27T23:50:27.047Z,57.14
2019-06-27T23:52:54.311Z,57.52
2019-06-27T23:55:22.578Z,57.82
2019-06-27T23:57:50.135Z,58.23
